createdAt,value
2022-08-25T00:01:50.381Z,56.40
2022-08-25T00:04:19.322Z,62.40
2022-08-25T00:06:48.692Z,68.63
2022-08-25T00:09:19.104Z,69.90
2022-08-25T00:11:47.030Z,68.10
2022-08-25T00:14:17.637Z,70.13
2022-08-25T00:16:44.442Z,70.80
2022-08-25T00:19:17.068Z,70.30
2022-08-25T00:21:44.783Z,68.45
2022-08-25T00:24:12.546Z,53.10
2022-08-25T00:26:45.227Z,68.35
2022-08-25T00:29:12.580Z,68.35
2022-08-25T00:31:40.308Z,69.03
2022-08-25T00:34:10.912Z,65.35
2022-08-25T00:36:38.391Z,59.97
2022-08-25T00:39:07.531Z,63.13
2022-08-25T00:41:36.343Z,78.35
2022-08-25T00:46:41.637Z,72.32
2022-08-25T00:49:17.965Z,62.42
2022-08-25T00:51:57.579Z,61.35
2022-08-25T00:54:29.542Z,81.40
2022-08-25T00:56:58.628Z,75.68
2022-08-25T00:59:26.586Z,77.25
2022-08-25T01:01:54.262Z,70.70
2022-08-25T01:04:21.310Z,70.95
2022-08-25T01:06:48.859Z,76.85
2022-08-25T01:09:16.615Z,67.65
2022-08-25T01:11:44.629Z,64.90
2022-08-25T01:14:13.038Z,78.88
2022-08-25T01:16:40.408Z,64.65
2022-08-25T01:19:08.739Z,59.90
2022-08-25T01:21:45.391Z,59.90
2022-08-25T01:24:16.832Z,55.05
2022-08-25T01:26:43.604Z,59.70
2022-08-25T01:29:25.464Z,66.18
2022-08-25T01:32:01.731Z,59.50
2022-08-25T01:34:31.295Z,56.95
2022-08-25T01:36:59.277Z,56.22
2022-08-25T01:39:27.894Z,51.70
2022-08-25T01:42:18.267Z,60.47
2022-08-25T01:44:46.159Z,56.92
2022-08-25T01:47:13.618Z,69.97
2022-08-25T01:49:40.644Z,60.47
2022-08-25T01:52:22.558Z,69.57
2022-08-25T01:54:49.606Z,46.92
2022-08-25T01:57:16.532Z,54.08
2022-08-25T01:59:43.352Z,63.28
2022-08-25T02:02:10.551Z,56.58
2022-08-25T02:04:37.959Z,56.83
2022-08-25T02:07:06.900Z,44.22
2022-08-25T02:09:34.244Z,48.22
2022-08-25T02:12:01.394Z,56.78
2022-08-25T02:14:28.702Z,57.53
2022-08-25T02:16:56.251Z,55.63
2022-08-25T02:19:24.589Z,47.38
2022-08-25T02:21:51.602Z,46.47
2022-08-25T02:24:18.985Z,40.92
2022-08-25T02:26:45.992Z,46.30
2022-08-25T02:29:13.858Z,55.22
2022-08-25T02:31:41.032Z,60.35
2022-08-25T02:34:09.580Z,56.45
2022-08-25T02:36:38.153Z,44.10
2022-08-25T02:39:09.502Z,45.50
2022-08-25T02:41:36.797Z,50.35
2022-08-25T02:44:04.882Z,50.38
2022-08-25T02:46:31.832Z,48.40
2022-08-25T02:48:58.905Z,53.55
2022-08-25T02:51:30.305Z,57.75
2022-08-25T02:53:58.336Z,45.33
2022-08-25T02:56:25.999Z,56.95
2022-08-25T02:58:53.033Z,41.38
2022-08-25T03:01:20.236Z,48.65
2022-08-25T03:03:49.887Z,44.33
2022-08-25T03:06:19.494Z,59.30
2022-08-25T03:08:46.299Z,47.03
2022-08-25T03:11:13.143Z,49.38
2022-08-25T03:13:40.512Z,40.30
2022-08-25T03:16:11.360Z,53.75
2022-08-25T03:18:40.825Z,57.10
2022-08-25T03:21:08.089Z,57.05
2022-08-25T03:23:35.299Z,43.92
2022-08-25T03:26:20.810Z,48.30
2022-08-25T03:28:47.580Z,50.28
2022-08-25T03:31:14.394Z,43.05
2022-08-25T03:33:41.372Z,50.17
2022-08-25T03:36:08.923Z,49.17
2022-08-25T03:38:38.457Z,68.45
2022-08-25T03:41:17.942Z,58.38
2022-08-25T03:43:44.944Z,51.42
2022-08-25T03:46:23.355Z,53.03
2022-08-25T03:48:50.917Z,48.67
2022-08-25T03:51:27.219Z,45.50
2022-08-25T03:53:54.516Z,46.42
2022-08-25T03:56:21.279Z,46.58
2022-08-25T03:58:48.526Z,53.28
2022-08-25T04:01:15.988Z,46.97
2022-08-25T04:03:45.305Z,44.55
2022-08-25T04:06:12.337Z,42.08
2022-08-25T04:08:39.306Z,43.95
2022-08-25T04:11:11.321Z,52.70
2022-08-25T04:13:38.153Z,43.08
2022-08-25T04:16:12.971Z,52.30
2022-08-25T04:18:41.177Z,52.40
2022-08-25T04:21:10.649Z,51.80
2022-08-25T04:23:38.683Z,43.38
2022-08-25T04:26:14.297Z,55.75
2022-08-25T04:28:41.551Z,49.67
2022-08-25T04:31:10.048Z,46.75
2022-08-25T04:33:38.289Z,50.90
2022-08-25T04:36:11.435Z,54.97
2022-08-25T04:38:40.573Z,50.78
2022-08-25T04:41:08.592Z,47.72
2022-08-25T04:43:36.526Z,47.40
2022-08-25T04:46:08.085Z,57.25
2022-08-25T04:48:35.406Z,52.30
2022-08-25T04:51:10.772Z,42.50
2022-08-25T04:53:38.175Z,43.00
2022-08-25T04:56:10.800Z,47.33
2022-08-25T04:58:38.213Z,50.72
2022-08-25T05:01:17.246Z,45.40
2022-08-25T05:03:45.362Z,41.40
2022-08-25T05:06:15.834Z,49.45
2022-08-25T05:08:45.833Z,42.80
2022-08-25T05:11:14.903Z,46.88
2022-08-25T05:13:42.680Z,41.65
2022-08-25T05:16:09.892Z,45.45
2022-08-25T05:18:38.674Z,35.60
2022-08-25T05:21:11.131Z,48.67
2022-08-25T05:23:38.809Z,46.88
2022-08-25T05:26:09.029Z,45.78
2022-08-25T05:28:35.825Z,44.78
2022-08-25T05:31:04.615Z,46.03
2022-08-25T05:33:33.037Z,54.22
2022-08-25T05:36:00.033Z,55.80
2022-08-25T05:38:26.847Z,40.83
2022-08-25T05:40:57.829Z,34.63
2022-08-25T05:43:24.893Z,48.78
2022-08-25T05:45:55.304Z,40.58
2022-08-25T05:48:22.366Z,49.20
2022-08-25T05:51:00.106Z,34.90
2022-08-25T05:53:28.625Z,40.90
2022-08-25T05:55:59.030Z,42.20
2022-08-25T05:58:28.391Z,43.85
2022-08-25T06:00:56.153Z,45.00
2022-08-25T06:03:23.064Z,41.05
2022-08-25T06:05:50.333Z,43.50
2022-08-25T06:08:17.101Z,38.15
2022-08-25T06:10:43.856Z,43.15
2022-08-25T06:13:10.591Z,36.85
2022-08-25T06:15:38.683Z,34.10
2022-08-25T06:18:05.584Z,40.65
2022-08-25T06:20:32.607Z,46.92
2022-08-25T06:22:59.674Z,37.15
2022-08-25T06:25:27.228Z,37.10
2022-08-25T06:27:55.338Z,38.10
2022-08-25T06:30:24.614Z,41.38
2022-08-25T06:32:56.028Z,43.03
2022-08-25T06:35:23.401Z,32.88
2022-08-25T06:37:50.232Z,32.92
2022-08-25T06:40:17.187Z,36.50
2022-08-25T06:42:48.783Z,33.60
2022-08-25T06:45:15.693Z,36.08
2022-08-25T06:47:42.979Z,34.05
2022-08-25T06:50:12.539Z,31.55
2022-08-25T06:52:39.474Z,33.42
2022-08-25T06:55:06.971Z,36.28
2022-08-25T06:57:36.007Z,31.55
2022-08-25T07:00:09.056Z,44.50
2022-08-25T07:02:36.043Z,32.72
2022-08-25T07:05:03.042Z,30.00
2022-08-25T07:07:43.577Z,25.65
2022-08-25T07:10:11.749Z,40.92
2022-08-25T07:12:39.321Z,30.05
2022-08-25T07:15:21.702Z,28.17
2022-08-25T07:17:49.648Z,25.40
2022-08-25T07:20:19.194Z,35.05
2022-08-25T07:22:46.928Z,38.42
2022-08-25T07:25:13.908Z,36.10
2022-08-25T07:27:42.486Z,30.80
2022-08-25T07:30:09.945Z,27.17
2022-08-25T07:32:38.029Z,30.40
2022-08-25T07:35:19.483Z,31.30
2022-08-25T07:37:57.083Z,40.42
2022-08-25T07:40:29.095Z,28.27
2022-08-25T07:42:58.303Z,18.85
2022-08-25T07:45:31.491Z,30.45
2022-08-25T07:48:02.446Z,29.33
2022-08-25T07:50:29.807Z,29.92
2022-08-25T07:52:57.777Z,28.55
2022-08-25T07:55:26.106Z,26.33
2022-08-25T07:57:56.314Z,27.02
2022-08-25T08:00:27.799Z,28.58
2022-08-25T08:02:55.353Z,40.70
2022-08-25T08:05:24.033Z,43.78
2022-08-25T08:07:51.629Z,52.75
2022-08-25T08:11:00.616Z,33.60
2022-08-25T08:13:07.404Z,28.73
2022-08-25T08:15:35.328Z,31.30
2022-08-25T08:18:03.075Z,36.58
2022-08-25T08:20:42.641Z,40.88
2022-08-25T08:23:10.450Z,36.45
2022-08-25T08:25:37.187Z,34.03
2022-08-25T08:28:03.947Z,29.73
2022-08-25T08:30:36.648Z,40.00
2022-08-25T08:33:10.109Z,30.83
2022-08-25T08:35:38.320Z,21.75
2022-08-25T08:38:10.308Z,33.05
2022-08-25T08:41:22.792Z,29.95
2022-08-25T08:43:54.648Z,29.15
2022-08-25T08:46:23.010Z,31.13
2022-08-25T08:49:13.066Z,35.63
2022-08-25T08:54:20.462Z,35.15
2022-08-25T08:56:53.441Z,32.25
2022-08-25T08:59:30.339Z,31.45
2022-08-25T09:02:00.708Z,35.28
2022-08-25T09:04:35.649Z,31.98
2022-08-25T09:07:11.598Z,33.60
2022-08-25T09:09:40.857Z,28.80
2022-08-25T09:12:20.746Z,31.13
2022-08-25T09:15:46.009Z,27.52
2022-08-25T09:18:25.357Z,28.70
2022-08-25T09:20:55.734Z,28.80
2022-08-25T09:23:37.806Z,32.90
2022-08-25T09:26:48.727Z,22.42
2022-08-25T09:29:21.515Z,33.38
2022-08-25T09:31:48.935Z,30.73
2022-08-25T09:34:24.072Z,23.23
2022-08-25T09:36:53.384Z,25.90
2022-08-25T09:39:20.887Z,33.05
2022-08-25T09:41:57.116Z,25.40
2022-08-25T09:44:28.022Z,34.63
2022-08-25T09:47:01.964Z,28.00
2022-08-25T09:49:38.360Z,30.60
2022-08-25T09:52:34.026Z,30.30
2022-08-25T09:55:15.721Z,28.85
2022-08-25T09:57:48.444Z,32.25
2022-08-25T10:00:35.095Z,31.75
2022-08-25T10:03:10.863Z,25.98
2022-08-25T10:05:48.171Z,30.08
2022-08-25T10:08:35.357Z,32.97
2022-08-25T10:11:06.489Z,39.33
2022-08-25T10:13:40.658Z,37.10
2022-08-25T10:16:19.957Z,44.30
2022-08-25T10:19:01.102Z,44.20
2022-08-25T10:21:28.328Z,38.15
2022-08-25T10:23:58.957Z,39.83
2022-08-25T10:26:36.624Z,32.13
2022-08-25T10:29:12.365Z,30.67
2022-08-25T10:32:07.075Z,38.70
2022-08-25T10:35:15.543Z,61.90
2022-08-25T10:40:24.292Z,64.10
2022-08-25T10:43:19.107Z,37.55
2022-08-25T10:45:50.971Z,39.90
2022-08-25T10:48:24.961Z,37.88
2022-08-25T10:51:03.893Z,31.75
2022-08-25T10:53:34.186Z,51.05
2022-08-25T10:56:21.325Z,63.83
2022-08-25T10:58:55.983Z,33.50
2022-08-25T11:04:14.114Z,55.03
2022-08-25T11:06:54.911Z,47.90
2022-08-25T11:11:54.165Z,43.22
2022-08-25T11:14:25.043Z,52.35
2022-08-25T11:17:27.883Z,36.60
2022-08-25T11:20:05.809Z,37.53
2022-08-25T11:22:48.822Z,45.83
2022-08-25T11:25:37.316Z,35.40
2022-08-25T11:28:14.800Z,48.45
2022-08-25T11:30:42.116Z,46.40
2022-08-25T11:33:13.768Z,50.33
2022-08-25T11:35:49.271Z,52.72
2022-08-25T11:38:16.356Z,45.45
2022-08-25T11:41:40.820Z,51.38
2022-08-25T11:44:27.778Z,46.85
2022-08-25T11:47:00.225Z,49.95
2022-08-25T11:49:58.439Z,50.00
2022-08-25T11:52:34.560Z,48.30
2022-08-25T11:55:15.073Z,50.70
2022-08-25T11:57:43.291Z,48.65
2022-08-25T12:00:33.081Z,44.67
2022-08-25T12:03:32.621Z,44.33
2022-08-25T12:06:19.452Z,51.30
2022-08-25T12:09:01.119Z,47.67
2022-08-25T12:12:32.337Z,46.60
2022-08-25T12:15:22.550Z,58.28
2022-08-25T12:18:15.197Z,45.15
2022-08-25T12:21:02.668Z,57.17
2022-08-25T12:23:33.170Z,59.85
2022-08-25T12:26:26.011Z,69.22
2022-08-25T12:29:11.634Z,52.42
2022-08-25T12:31:51.210Z,50.13
2022-08-25T12:34:36.558Z,42.95
2022-08-25T12:37:23.783Z,56.53
2022-08-25T12:39:50.511Z,49.95
2022-08-25T12:42:29.798Z,61.13
2022-08-25T12:45:21.227Z,50.08
2022-08-25T12:47:49.229Z,52.53
2022-08-25T12:50:47.726Z,40.83
2022-08-25T12:53:21.720Z,50.13
2022-08-25T12:56:02.690Z,46.90
2022-08-25T12:58:58.806Z,50.38
2022-08-25T13:01:52.027Z,54.50
2022-08-25T13:04:34.130Z,45.88
2022-08-25T13:07:36.158Z,50.78
2022-08-25T13:10:08.907Z,51.83
2022-08-25T13:12:47.080Z,61.35
2022-08-25T13:15:27.585Z,68.97
2022-08-25T13:17:54.289Z,55.47
2022-08-25T13:20:29.282Z,52.95
2022-08-25T13:22:58.316Z,60.63
2022-08-25T13:25:32.112Z,59.25
2022-08-25T13:28:02.000Z,60.70
2022-08-25T13:30:28.654Z,49.10
2022-08-25T13:32:56.090Z,51.15
2022-08-25T13:35:32.877Z,51.55
2022-08-25T13:38:19.569Z,53.58
2022-08-25T13:40:46.436Z,56.17
2022-08-25T13:43:14.261Z,50.25
2022-08-25T13:45:46.902Z,49.58
2022-08-25T13:48:22.704Z,47.78
2022-08-25T13:50:52.648Z,44.10
2022-08-25T13:53:25.356Z,54.53
2022-08-25T13:55:56.938Z,54.40
2022-08-25T13:58:39.466Z,53.15
2022-08-25T14:01:23.048Z,48.50
2022-08-25T14:04:26.061Z,50.58
2022-08-25T14:07:26.765Z,54.83
2022-08-25T14:10:05.004Z,49.80
2022-08-25T14:12:42.184Z,57.47
2022-08-25T14:15:17.475Z,58.53
2022-08-25T14:20:29.058Z,53.17
2022-08-25T14:22:59.229Z,51.58
2022-08-25T14:25:28.046Z,62.33
2022-08-25T14:28:08.180Z,53.53
2022-08-25T14:30:37.308Z,43.70
2022-08-25T14:33:04.502Z,51.15
2022-08-25T14:35:31.807Z,60.60
2022-08-25T14:37:58.645Z,66.28
2022-08-25T14:40:25.401Z,47.65
2022-08-25T14:42:52.198Z,50.58
2022-08-25T14:45:19.588Z,59.85
2022-08-25T14:47:49.983Z,54.50
2022-08-25T14:50:20.105Z,52.03
2022-08-25T14:52:52.004Z,60.17
2022-08-25T14:55:31.821Z,64.72
2022-08-25T14:57:59.606Z,47.10
2022-08-25T15:00:26.805Z,54.17
2022-08-25T15:02:54.990Z,59.08
2022-08-25T15:05:27.159Z,48.20
2022-08-25T15:08:13.932Z,55.72
2022-08-25T15:10:40.769Z,50.40
2022-08-25T15:13:07.738Z,44.78
2022-08-25T15:15:39.541Z,48.88
2022-08-25T15:18:20.701Z,55.30
2022-08-25T15:20:50.117Z,59.78
2022-08-25T15:23:18.634Z,79.13
2022-08-25T15:25:46.994Z,57.38
2022-08-25T15:30:45.712Z,51.20
2022-08-25T15:33:12.786Z,58.47
2022-08-25T15:35:39.662Z,58.45
2022-08-25T15:38:06.502Z,69.78
2022-08-25T15:40:35.385Z,44.90
2022-08-25T15:43:02.455Z,57.17
2022-08-25T15:45:29.858Z,57.35
2022-08-25T15:47:57.546Z,50.35
2022-08-25T15:50:26.243Z,54.00
2022-08-25T15:52:53.319Z,54.88
2022-08-25T15:55:20.922Z,42.17
2022-08-25T15:57:49.627Z,56.97
2022-08-25T16:00:18.136Z,54.92
2022-08-25T16:02:45.484Z,41.08
2022-08-25T16:05:16.140Z,44.97
2022-08-25T16:07:46.043Z,41.65
2022-08-25T16:10:18.223Z,48.15
2022-08-25T16:12:45.533Z,43.90
2022-08-25T16:15:12.513Z,43.65
2022-08-25T16:17:40.669Z,42.70
2022-08-25T16:20:08.281Z,38.50
2022-08-25T16:22:41.127Z,42.60
2022-08-25T16:25:08.608Z,38.28
2022-08-25T16:27:38.842Z,46.95
2022-08-25T16:30:07.594Z,46.40
2022-08-25T16:32:34.992Z,41.63
2022-08-25T16:35:03.137Z,36.42
2022-08-25T16:37:30.188Z,37.70
2022-08-25T16:39:57.629Z,42.88
2022-08-25T16:42:26.496Z,38.38
2022-08-25T16:44:54.254Z,40.28
2022-08-25T16:47:25.255Z,44.50
2022-08-25T16:49:53.847Z,38.08
2022-08-25T16:52:39.360Z,53.55
2022-08-25T16:55:14.399Z,40.90
2022-08-25T16:57:44.089Z,36.58
2022-08-25T17:00:13.888Z,49.38
2022-08-25T17:02:41.949Z,43.92
2022-08-25T17:05:10.103Z,52.28
2022-08-25T17:07:36.930Z,41.50
2022-08-25T17:10:06.153Z,40.90
2022-08-25T17:12:33.195Z,36.88
2022-08-25T17:15:00.579Z,37.22
2022-08-25T17:17:27.431Z,51.50
2022-08-25T17:19:54.868Z,47.55
2022-08-25T17:22:22.861Z,33.55
2022-08-25T17:24:59.146Z,46.30
2022-08-25T17:27:27.435Z,39.67
2022-08-25T17:29:54.760Z,38.85
2022-08-25T17:32:28.915Z,33.92
2022-08-25T17:34:58.073Z,45.65
2022-08-25T17:37:25.269Z,41.35
2022-08-25T17:39:56.738Z,31.73
2022-08-25T17:42:30.168Z,36.90
2022-08-25T17:44:57.368Z,33.63
2022-08-25T17:47:24.132Z,37.28
2022-08-25T17:49:51.193Z,34.28
2022-08-25T17:52:18.764Z,44.33
2022-08-25T17:54:48.472Z,30.75
2022-08-25T17:57:16.251Z,31.13
2022-08-25T17:59:43.049Z,28.27
2022-08-25T18:02:09.941Z,34.63
2022-08-25T18:04:38.153Z,38.20
2022-08-25T18:07:05.675Z,45.50
2022-08-25T18:09:32.532Z,34.83
2022-08-25T18:11:59.349Z,46.28
2022-08-25T18:14:26.964Z,37.08
2022-08-25T18:16:54.262Z,30.15
2022-08-25T18:19:21.212Z,30.10
2022-08-25T18:21:47.983Z,32.03
2022-08-25T18:24:14.826Z,36.60
2022-08-25T18:26:41.966Z,39.17
2022-08-25T18:29:12.976Z,31.33
2022-08-25T18:31:41.753Z,27.17
2022-08-25T18:34:11.284Z,24.67
2022-08-25T18:36:38.854Z,30.45
2022-08-25T18:39:25.416Z,33.75
2022-08-25T18:41:52.524Z,33.63
2022-08-25T18:44:19.433Z,35.08
2022-08-25T18:46:46.395Z,35.88
2022-08-25T18:49:15.622Z,33.10
2022-08-25T18:51:44.468Z,26.63
2022-08-25T18:54:19.033Z,32.53
2022-08-25T18:56:50.559Z,28.75
2022-08-25T18:59:19.414Z,30.55
2022-08-25T19:01:46.513Z,29.08
2022-08-25T19:04:15.517Z,28.13
2022-08-25T19:06:44.796Z,28.83
2022-08-25T19:09:12.005Z,30.05
2022-08-25T19:11:38.963Z,30.17
2022-08-25T19:14:12.164Z,33.97
2022-08-25T19:16:42.530Z,36.78
2022-08-25T19:19:13.317Z,32.53
2022-08-25T19:21:41.546Z,27.67
2022-08-25T19:24:09.302Z,32.00
2022-08-25T19:26:37.057Z,50.95
2022-08-25T19:29:09.693Z,35.75
2022-08-25T19:31:37.388Z,22.23
2022-08-25T19:34:07.102Z,31.33
2022-08-25T19:36:34.253Z,31.58
2022-08-25T19:39:01.782Z,27.08
2022-08-25T19:41:29.693Z,26.27
2022-08-25T19:43:57.598Z,28.52
2022-08-25T19:46:32.916Z,26.05
2022-08-25T19:49:15.657Z,30.52
2022-08-25T19:51:46.117Z,27.52
2022-08-25T19:54:15.176Z,27.83
2022-08-25T19:56:54.797Z,30.33
2022-08-25T19:59:40.725Z,35.47
2022-08-25T20:02:15.161Z,34.28
2022-08-25T20:04:49.171Z,26.58
2022-08-25T20:07:22.910Z,33.63
2022-08-25T20:09:51.836Z,29.13
2022-08-25T20:12:20.371Z,24.15
2022-08-25T20:14:48.262Z,27.33
2022-08-25T20:17:24.832Z,29.58
2022-08-25T20:19:57.111Z,25.92
2022-08-25T20:22:26.931Z,31.02
2022-08-25T20:24:58.037Z,27.30
2022-08-25T20:27:28.684Z,23.50
2022-08-25T20:29:55.503Z,25.92
2022-08-25T20:32:23.632Z,22.90
2022-08-25T20:34:51.379Z,31.70
2022-08-25T20:37:18.575Z,25.25
2022-08-25T20:39:46.417Z,27.25
2022-08-25T20:42:14.161Z,29.17
2022-08-25T20:44:42.224Z,24.58
2022-08-25T20:47:10.567Z,25.65
2022-08-25T20:49:39.634Z,22.55
2022-08-25T20:52:07.654Z,29.42
2022-08-25T20:54:34.699Z,23.63
2022-08-25T20:57:02.566Z,24.88
2022-08-25T20:59:29.966Z,30.38
2022-08-25T21:01:58.438Z,17.45
2022-08-25T21:04:29.377Z,20.80
2022-08-25T21:06:57.572Z,21.65
2022-08-25T21:09:25.077Z,23.48
2022-08-25T21:11:53.414Z,28.73
2022-08-25T21:14:21.557Z,27.27
2022-08-25T21:16:49.598Z,25.38
2022-08-25T21:19:26.819Z,33.60
2022-08-25T21:21:59.443Z,30.58
2022-08-25T21:24:27.279Z,24.33
2022-08-25T21:26:56.561Z,26.63
2022-08-25T21:29:24.796Z,23.95
2022-08-25T21:31:51.779Z,24.50
2022-08-25T21:34:20.055Z,29.80
2022-08-25T21:36:47.684Z,23.88
2022-08-25T21:39:15.073Z,28.70
2022-08-25T21:41:44.422Z,21.10
2022-08-25T21:44:12.873Z,28.08
2022-08-25T21:46:42.390Z,24.27
2022-08-25T21:49:21.178Z,21.77
2022-08-25T21:51:50.971Z,25.27
2022-08-25T21:54:24.091Z,18.90
2022-08-25T21:56:52.154Z,24.55
2022-08-25T21:59:24.117Z,21.77
2022-08-25T22:01:56.338Z,21.00
2022-08-25T22:04:23.314Z,27.02
2022-08-25T22:06:50.560Z,22.70
2022-08-25T22:09:17.559Z,29.85
2022-08-25T22:11:46.097Z,29.08
2022-08-25T22:14:14.939Z,32.67
2022-08-25T22:16:42.552Z,25.73
2022-08-25T22:19:12.055Z,29.02
2022-08-25T22:21:40.493Z,31.50
2022-08-25T22:24:09.128Z,24.73
2022-08-25T22:26:36.775Z,25.00
2022-08-25T22:29:05.240Z,31.48
2022-08-25T22:31:33.674Z,30.30
2022-08-25T22:34:00.780Z,26.23
2022-08-25T22:36:32.173Z,23.50
2022-08-25T22:38:59.777Z,23.88
2022-08-25T22:41:28.616Z,23.00
2022-08-25T22:46:24.881Z,25.02
2022-08-25T22:48:51.843Z,24.70
2022-08-25T22:51:22.416Z,22.13
2022-08-25T22:53:50.041Z,20.88
2022-08-25T22:56:19.447Z,22.75
2022-08-25T22:58:52.028Z,23.17
2022-08-25T23:01:20.559Z,33.08
2022-08-25T23:03:48.069Z,25.70
2022-08-25T23:06:24.581Z,19.60
2022-08-25T23:08:53.510Z,21.95
2022-08-25T23:11:21.716Z,26.02
2022-08-25T23:13:49.140Z,18.77
2022-08-25T23:16:16.465Z,21.42
2022-08-25T23:18:45.084Z,31.30
2022-08-25T23:21:35.193Z,32.47
2022-08-25T23:24:10.891Z,26.60
2022-08-25T23:26:41.980Z,25.02
2022-08-25T23:29:18.477Z,29.48
2022-08-25T23:31:47.560Z,21.92
2022-08-25T23:36:42.134Z,23.42
2022-08-25T23:39:09.459Z,22.73
2022-08-25T23:41:36.926Z,20.00
2022-08-25T23:44:05.782Z,20.08
2022-08-25T23:46:35.220Z,26.83
2022-08-25T23:49:06.208Z,21.95
2022-08-25T23:51:38.009Z,21.83
2022-08-25T23:54:10.647Z,24.55
2022-08-25T23:56:44.895Z,28.27
2022-08-25T23:59:24.831Z,21.98
